CSAV Lonquen — A8OT2 — position and weather

sailwx.info

Track history (hours):
 
Tides and Currents Weather Stations Pressure Air Temp Water Temp Dewpoint Dewpoint Depression Visibility Wind Speed Wind Dir Waves Ship Positions

CSAV Lonquen

Last reported at 2014-Jul-22 17:24 UTC. Time now 2014-Jul-24 00:19 UTC.
Position N 33°03' E 027°01'.

Length 261 m; draft 9 m.

Type: Ship (hazmat cat A). MMSI: 636091501.

Date/timePositionNaut miles runAvg speedWind from/ knotsBaromVisibWave heightAir tempDewpointWater temp
2014-Jul-22 17:24N 33°03' E 027°01'  
2014-Jul-20 11:17N 34°09' E 033°56'1 1.1
2014-Jul-20 10:33N 34°10' E 033°57'2 1.9
2014-Jul-20 09:34N 34°09' E 033°55'2 1.8
2014-Jul-20 08:33N 34°08' E 033°53'2 1.8
2014-Jul-20 07:34N 34°07' E 033°51'11 4.8
2014-Jul-20 05:19N 34°16' E 033°58'7 9.2
2014-Jul-20 04:33N 34°22' E 034°02'  
2014-Jul-16 09:31N 33°55' E 035°32'32 3.2
2014-Jul-15 23:33N 33°45' E 034°56'5216.3
2014-Jul-15 20:21N 33°14' E 034°06'1516.4
2014-Jul-15 19:27N 33°04' E 033°52'1516.4
2014-Jul-15 18:33N 32°55' E 033°39'1616.5
2014-Jul-15 17:33N 32°43' E 033°25'3316.5
2014-Jul-15 15:33N 32°20' E 032°57'1716.8
2014-Jul-15 14:33N 32°08' E 032°43'1716.2
2014-Jul-15 13:29N 31°56' E 032°29'1516.0
2014-Jul-15 12:33N 31°46' E 032°15'2418.3
2014-Jul-15 11:14N 31°38' E 031°48'910.8
2014-Jul-15 10:25N 31°29' E 031°46'7 0.9
2014-Jul-15 02:34N 31°36' E 031°47'  
Track history (hours):
 
Tides and Currents Weather Stations Pressure Air Temp Water Temp Dewpoint Dewpoint Depression Visibility Wind Speed Wind Dir Waves Ship Positions

CSAV Lonquen

Last reported at 2014-Jul-22 17:24 UTC. Time now 2014-Jul-24 00:19 UTC.
Position N 33°03' E 027°01'.

Length 261 m; draft 9 m.

Type: Ship (hazmat cat A). MMSI: 636091501.

Date/timePositionNaut miles runAvg speedWind from/ knotsBaromVisibWave heightAir tempDewpointWater temp
2014-Jul-22 17:24N 33°03' E 027°01'  
2014-Jul-20 11:17N 34°09' E 033°56'1 1.1
2014-Jul-20 10:33N 34°10' E 033°57'2 1.9
2014-Jul-20 09:34N 34°09' E 033°55'2 1.8
2014-Jul-20 08:33N 34°08' E 033°53'2 1.8
2014-Jul-20 07:34N 34°07' E 033°51'11 4.8
2014-Jul-20 05:19N 34°16' E 033°58'7 9.2
2014-Jul-20 04:33N 34°22' E 034°02'  
2014-Jul-16 09:31N 33°55' E 035°32'32 3.2
2014-Jul-15 23:33N 33°45' E 034°56'5216.3
2014-Jul-15 20:21N 33°14' E 034°06'1516.4
2014-Jul-15 19:27N 33°04' E 033°52'1516.4
2014-Jul-15 18:33N 32°55' E 033°39'1616.5
2014-Jul-15 17:33N 32°43' E 033°25'3316.5
2014-Jul-15 15:33N 32°20' E 032°57'1716.8
2014-Jul-15 14:33N 32°08' E 032°43'1716.2
2014-Jul-15 13:29N 31°56' E 032°29'1516.0
2014-Jul-15 12:33N 31°46' E 032°15'2418.3
2014-Jul-15 11:14N 31°38' E 031°48'910.8
2014-Jul-15 10:25N 31°29' E 031°46'7 0.9
2014-Jul-15 02:34N 31°36' E 031°47'  

Dump ship's entire track history